Time;durP1;ratioP1;P1;durP2;ratioP2;P2;SDS_P1;SDS_P2;PMS_P1;PMS_P2;Temp;Humidity;BMP_temperature;BMP_pressure;BME280_temperature;BME280_humidity;BME280_pressure;Samples;Min_cycle;Max_cycle;Signal;HPM_P1;HPM_P2
2024/03/14 00:00:22;;;;;;;7.93;6.03;;;22.40;99.90;;;;;;5034353;28;20095;-44
2024/03/14 00:02:48;;;;;;;8.20;6.18;;;22.40;99.90;;;;;;5034000;28;20092;-44
2024/03/14 00:05:14;;;;;;;8.57;6.63;;;22.40;99.90;;;;;;5033918;28;20038;-44
2024/03/14 00:07:41;;;;;;;9.05;6.70;;;22.40;99.90;;;;;;5033901;28;20030;-44
2024/03/14 00:10:09;;;;;;;8.40;5.97;;;22.30;99.90;;;;;;5033963;28;20033;-44
2024/03/14 00:12:35;;;;;;;8.98;6.55;;;22.30;99.90;;;;;;5033895;28;20079;-44
2024/03/14 00:15:00;;;;;;;8.00;6.05;;;22.30;99.90;;;;;;5034134;28;20021;-44
2024/03/14 00:17:26;;;;;;;8.93;5.97;;;22.30;99.90;;;;;;5033116;28;20088;-44
2024/03/14 00:19:52;;;;;;;9.23;6.10;;;22.30;99.90;;;;;;5033845;28;20032;-44
2024/03/14 00:22:18;;;;;;;8.88;6.20;;;22.30;99.90;;;;;;5033632;28;20025;-44
2024/03/14 00:24:45;;;;;;;10.43;6.93;;;22.30;99.90;;;;;;5016209;28;20362;-45
2024/03/14 00:27:13;;;;;;;9.17;6.33;;;22.30;99.90;;;;;;5016229;28;20064;-43
2024/03/14 00:29:41;;;;;;;7.93;5.53;;;22.30;99.90;;;;;;5033581;28;20271;-43
2024/03/14 00:32:07;;;;;;;7.88;6.25;;;22.30;99.90;;;;;;5033653;28;20030;-44
2024/03/14 00:34:33;;;;;;;7.45;5.55;;;22.30;99.90;;;;;;5033544;28;20087;-43
2024/03/14 00:37:01;;;;;;;9.27;6.70;;;22.30;99.90;;;;;;5015912;28;20037;-43
2024/03/14 00:39:26;;;;;;;9.15;5.50;;;22.20;99.90;;;;;;5015942;28;20090;-43
2024/03/14 00:41:53;;;;;;;8.98;6.07;;;22.20;99.90;;;;;;5033395;28;20549;-43
2024/03/14 00:44:19;;;;;;;7.90;6.70;;;22.20;99.90;;;;;;5015621;28;20056;-44
2024/03/14 00:46:45;;;;;;;8.63;5.70;;;22.20;99.90;;;;;;5033099;28;20017;-44
2024/03/14 00:49:11;;;;;;;8.07;6.28;;;22.20;99.90;;;;;;5033164;28;20514;-44
2024/03/14 00:51:37;;;;;;;10.90;7.03;;;22.20;99.90;;;;;;5033200;28;20057;-44
2024/03/14 00:54:04;;;;;;;7.97;5.93;;;22.20;99.90;;;;;;5033194;28;20045;-43
2024/03/14 00:56:30;;;;;;;10.27;6.93;;;22.20;99.90;;;;;;5033457;28;20486;-43
2024/03/14 00:58:56;;;;;;;8.95;6.28;;;22.20;99.90;;;;;;5015345;28;20029;-45
2024/03/14 01:01:25;;;;;;;9.40;6.88;;;22.20;99.90;;;;;;5015776;28;20049;-44
2024/03/14 01:03:55;;;;;;;6.75;5.88;;;22.10;99.90;;;;;;5032970;28;20036;-47
2024/03/14 01:06:21;;;;;;;9.63;6.88;;;22.10;99.90;;;;;;5032823;28;20060;-47
2024/03/14 01:08:48;;;;;;;9.35;6.60;;;22.10;99.90;;;;;;5032737;28;20036;-44
2024/03/14 01:11:18;;;;;;;8.82;6.25;;;22.10;99.90;;;;;;5014938;28;20473;-44
2024/03/14 01:13:44;;;;;;;7.55;5.82;;;22.10;99.90;;;;;;5032829;28;20437;-44
2024/03/14 01:16:10;;;;;;;8.38;6.32;;;22.10;99.90;;;;;;5032567;28;20029;-44
2024/03/14 01:18:36;;;;;;;7.47;6.22;;;22.10;99.90;;;;;;5032767;28;20026;-44
2024/03/14 01:21:08;;;;;;;9.77;6.88;;;22.10;99.90;;;;;;5032882;28;20036;-44
2024/03/14 01:23:33;;;;;;;8.43;6.07;;;22.10;99.90;;;;;;5032673;28;20096;-44
2024/03/14 01:26:00;;;;;;;7.20;5.53;;;22.10;99.90;;;;;;5032683;28;20095;-44
2024/03/14 01:28:29;;;;;;;7.10;5.53;;;22.00;99.90;;;;;;5032327;28;20033;-44
2024/03/14 01:30:58;;;;;;;8.35;5.88;;;22.10;99.90;;;;;;5032453;28;20616;-44
2024/03/14 01:33:24;;;;;;;8.40;5.45;;;22.00;99.90;;;;;;5032407;28;20025;-44
2024/03/14 01:35:54;;;;;;;9.43;6.60;;;22.00;99.90;;;;;;5032443;28;20029;-44
2024/03/14 01:38:21;;;;;;;8.20;6.05;;;22.00;99.90;;;;;;5032319;28;20100;-45
2024/03/14 01:40:47;;;;;;;9.10;6.50;;;22.00;99.90;;;;;;5014747;28;20017;-43
2024/03/14 01:43:13;;;;;;;7.28;5.88;;;22.00;99.90;;;;;;5032218;28;20026;-43
2024/03/14 01:45:41;;;;;;;7.15;6.10;;;22.00;99.90;;;;;;5032256;28;20029;-44
2024/03/14 01:48:07;;;;;;;7.47;5.82;;;22.00;99.90;;;;;;5032167;28;20498;-44
2024/03/14 01:50:33;;;;;;;8.18;5.93;;;22.00;99.90;;;;;;5014933;28;20075;-43
2024/03/14 01:52:59;;;;;;;8.52;5.97;;;22.00;99.90;;;;;;5032200;28;20079;-44
2024/03/14 01:55:25;;;;;;;7.40;5.35;;;22.00;99.90;;;;;;5032465;28;20021;-44
2024/03/14 01:57:51;;;;;;;9.95;6.90;;;21.90;99.90;;;;;;5014541;28;20025;-43
2024/03/14 02:00:18;;;;;;;8.65;5.95;;;21.90;99.90;;;;;;5014873;28;20080;-43
2024/03/14 02:02:45;;;;;;;8.73;6.38;;;21.90;99.90;;;;;;5031969;28;20350;-43
2024/03/14 02:05:21;;;;;;;7.53;5.65;;;21.90;99.90;;;;;;5032097;28;20022;-45
2024/03/14 02:07:49;;;;;;;7.78;5.93;;;21.90;99.90;;;;;;5032006;28;20061;-44
2024/03/14 02:10:16;;;;;;;7.22;5.25;;;21.90;99.90;;;;;;5032085;28;20021;-44
2024/03/14 02:12:42;;;;;;;7.65;5.88;;;21.90;99.90;;;;;;5032146;28;20090;-44
2024/03/14 02:15:08;;;;;;;7.55;6.15;;;21.90;99.90;;;;;;5031964;28;20021;-43
2024/03/14 02:17:35;;;;;;;8.65;6.00;;;21.90;99.90;;;;;;5032269;28;20490;-43
2024/03/14 02:20:01;;;;;;;9.33;6.47;;;21.80;99.90;;;;;;5014418;28;20033;-43
2024/03/14 02:22:29;;;;;;;9.13;6.40;;;21.80;99.90;;;;;;5031946;28;20030;-43
2024/03/14 02:24:55;;;;;;;10.15;6.95;;;21.80;99.90;;;;;;5014274;28;20033;-44
2024/03/14 02:27:22;;;;;;;7.68;5.93;;;21.90;99.90;;;;;;5032203;28;20029;-45
2024/03/14 02:29:48;;;;;;;8.15;5.57;;;21.80;99.90;;;;;;5031793;28;20037;-44
2024/03/14 02:32:14;;;;;;;7.93;5.95;;;21.80;99.90;;;;;;5014244;28;20474;-43
2024/03/14 02:34:40;;;;;;;8.02;6.30;;;21.80;99.90;;;;;;5031926;28;20029;-43
2024/03/14 02:37:06;;;;;;;7.50;6.10;;;21.80;99.90;;;;;;5032038;28;20026;-43
2024/03/14 02:39:34;;;;;;;7.15;5.40;;;21.80;99.90;;;;;;5031863;28;20017;-43
2024/03/14 02:42:00;;;;;;;7.38;6.18;;;21.80;99.90;;;;;;5017948;28;20116;-43
2024/03/14 02:44:26;;;;;;;6.95;5.65;;;21.80;99.90;;;;;;5036012;28;20080;-44
2024/03/14 02:46:52;;;;;;;8.05;5.50;;;21.80;99.90;;;;;;5035646;28;20108;-43
2024/03/14 02:49:20;;;;;;;8.13;6.18;;;21.70;99.90;;;;;;5035429;28;20105;-44
2024/03/14 02:51:47;;;;;;;7.97;6.07;;;21.80;99.90;;;;;;5035615;28;20017;-44
2024/03/14 02:54:16;;;;;;;7.82;5.25;;;21.70;99.90;;;;;;5035394;28;20041;-44
2024/03/14 02:56:49;;;;;;;8.52;5.05;;;21.70;99.90;;;;;;5035247;28;20108;-44
2024/03/14 02:59:16;;;;;;;7.78;5.97;;;21.70;99.90;;;;;;5035322;28;20021;-44
2024/03/14 03:01:42;;;;;;;7.18;5.68;;;21.70;99.90;;;;;;5066625;23;20041;-50
2024/03/14 03:04:11;;;;;;;8.20;5.95;;;21.70;99.90;;;;;;5075181;28;20025;-50
2024/03/14 03:06:54;;;;;;;8.30;6.53;;;21.70;99.90;;;;;;5075194;28;20483;-50
2024/03/14 03:09:21;;;;;;;6.97;5.20;;;21.70;99.90;;;;;;5074884;28;20032;-50
2024/03/14 03:11:47;;;;;;;7.60;6.25;;;21.70;99.90;;;;;;5074792;28;20033;-50
2024/03/14 03:14:13;;;;;;;6.95;5.60;;;21.70;99.90;;;;;;5074894;28;20031;-50
2024/03/14 03:16:39;;;;;;;8.05;6.15;;;21.70;99.90;;;;;;5075087;28;20469;-50
2024/03/14 03:19:05;;;;;;;7.57;5.50;;;21.60;99.90;;;;;;5074791;28;20028;-50
2024/03/14 03:21:31;;;;;;;8.15;5.32;;;21.60;99.90;;;;;;5074691;28;20384;-50
2024/03/14 03:23:57;;;;;;;7.20;5.97;;;21.60;99.90;;;;;;5074713;28;20075;-51
2024/03/14 03:26:25;;;;;;;8.25;5.88;;;21.60;99.90;;;;;;5074748;28;20059;-50
2024/03/14 03:28:51;;;;;;;;;;;21.60;99.90;;;;;;5074944;28;20036;-51
2024/03/14 03:31:17;;;;;;;9.32;6.30;;;21.60;99.90;;;;;;5074497;28;20037;-50
2024/03/14 03:33:42;;;;;;;8.05;5.68;;;21.60;99.90;;;;;;5074564;28;20059;-50
2024/03/14 03:36:09;;;;;;;7.80;6.00;;;21.60;99.90;;;;;;5074649;28;20118;-51
2024/03/14 03:38:39;;;;;;;7.97;6.13;;;21.60;99.90;;;;;;5074317;28;20024;-50
2024/03/14 03:41:12;;;;;;;8.00;5.63;;;21.50;99.90;;;;;;5074610;28;20385;-50
2024/03/14 03:43:38;;;;;;;8.98;5.82;;;21.50;99.90;;;;;;5074462;28;20496;-50
2024/03/14 03:46:06;;;;;;;6.63;5.50;;;21.50;99.90;;;;;;5074312;28;20047;-50
2024/03/14 03:48:34;;;;;;;9.30;6.15;;;21.50;99.90;;;;;;5074235;28;20490;-50
2024/03/14 03:51:00;;;;;;;8.90;5.78;;;21.50;99.90;;;;;;5074290;28;20412;-50
2024/03/14 03:53:27;;;;;;;7.25;5.65;;;21.50;99.90;;;;;;5074363;28;20024;-50
2024/03/14 03:55:52;;;;;;;7.82;5.72;;;21.50;99.90;;;;;;5074092;28;20067;-50
2024/03/14 03:58:21;;;;;;;6.47;5.10;;;21.50;99.90;;;;;;5074200;28;20036;-51
2024/03/14 04:00:47;;;;;;;7.43;5.65;;;21.50;99.90;;;;;;5082406;22;20045;-53
2024/03/14 04:03:15;;;;;;;7.93;5.72;;;21.50;99.90;;;;;;5054474;28;20107;-51
2024/03/14 04:05:45;;;;;;;7.95;5.28;;;21.40;99.90;;;;;;5054254;28;20025;-51
2024/03/14 04:08:14;;;;;;;9.82;5.97;;;21.50;99.90;;;;;;5054018;28;20033;-51
2024/03/14 04:10:40;;;;;;;7.28;5.30;;;21.40;99.90;;;;;;5036886;28;20013;-54
2024/03/14 04:13:10;;;;;;;8.32;5.93;;;21.50;99.90;;;;;;5053989;28;20053;-51
2024/03/14 04:15:36;;;;;;;7.30;5.80;;;21.40;99.90;;;;;;5053887;28;20414;-51
2024/03/14 04:18:05;;;;;;;8.90;6.38;;;21.40;99.90;;;;;;5053641;28;20104;-51
2024/03/14 04:20:33;;;;;;;7.47;5.65;;;21.40;99.90;;;;;;5035755;28;20082;-52
2024/03/14 04:22:59;;;;;;;6.40;5.07;;;21.40;99.90;;;;;;5053636;28;20056;-53
2024/03/14 04:25:25;;;;;;;9.75;5.55;;;21.40;99.90;;;;;;5053697;28;20036;-52
2024/03/14 04:27:52;;;;;;;7.45;6.05;;;21.40;99.90;;;;;;5035608;28;20033;-52
2024/03/14 04:30:21;;;;;;;7.72;5.50;;;21.40;99.90;;;;;;5053552;28;20118;-53
2024/03/14 04:32:50;;;;;;;7.15;5.13;;;21.40;99.90;;;;;;5053493;28;20479;-53
2024/03/14 04:35:17;;;;;;;6.65;5.22;;;21.40;99.90;;;;;;5053369;28;20032;-52
2024/03/14 04:37:44;;;;;;;7.27;5.63;;;21.40;99.90;;;;;;5053639;28;20516;-53
2024/03/14 04:40:13;;;;;;;6.90;5.22;;;21.40;99.90;;;;;;5053416;28;20290;-52
2024/03/14 04:42:43;;;;;;;8.05;5.82;;;21.40;99.90;;;;;;5053177;28;20100;-53
2024/03/14 04:45:11;;;;;;;8.70;5.68;;;21.40;99.90;;;;;;5053181;28;20533;-52
2024/03/14 04:47:37;;;;;;;;;;;21.30;99.90;;;;;;5053555;28;20086;-53
2024/03/14 04:50:03;;;;;;;8.18;5.70;;;21.30;99.90;;;;;;5053128;28;19911;-53
2024/03/14 04:52:30;;;;;;;7.68;5.72;;;21.30;99.90;;;;;;5035073;28;20051;-52
2024/03/14 04:54:55;;;;;;;7.47;5.60;;;21.40;99.90;;;;;;5052929;28;20036;-53
2024/03/14 04:57:22;;;;;;;8.52;5.88;;;21.30;99.90;;;;;;5052943;28;20386;-52
2024/03/14 04:59:48;;;;;;;7.97;5.43;;;21.30;99.90;;;;;;5052917;28;20104;-52
2024/03/14 05:02:15;;;;;;;8.03;5.53;;;21.30;99.90;;;;;;5032034;28;20052;-52
2024/03/14 05:04:40;;;;;;;6.97;5.38;;;21.30;99.90;;;;;;5032919;28;20386;-52
2024/03/14 05:07:07;;;;;;;7.30;5.80;;;21.30;99.90;;;;;;5032768;28;20419;-52
2024/03/14 05:09:33;;;;;;;6.97;5.35;;;21.30;99.90;;;;;;5031641;28;20025;-52
2024/03/14 05:11:59;;;;;;;7.97;5.82;;;21.30;99.90;;;;;;5031564;28;20029;-52
2024/03/14 05:14:25;;;;;;;7.72;5.70;;;21.30;99.90;;;;;;5032811;28;20101;-52
2024/03/14 05:16:51;;;;;;;8.00;5.47;;;21.30;99.90;;;;;;5032861;28;20127;-52
2024/03/14 05:19:20;;;;;;;7.55;5.28;;;21.30;99.90;;;;;;5032939;28;20572;-52
2024/03/14 05:21:46;;;;;;;7.78;5.57;;;21.30;99.90;;;;;;5032842;28;20026;-52
2024/03/14 05:24:15;;;;;;;7.43;5.60;;;21.30;99.90;;;;;;5032590;28;20045;-52
2024/03/14 05:26:42;;;;;;;7.25;5.05;;;21.20;99.90;;;;;;5032560;28;20489;-52
2024/03/14 05:29:08;;;;;;;7.05;5.57;;;21.20;99.90;;;;;;5032452;28;20140;-52
2024/03/14 05:31:35;;;;;;;7.32;4.93;;;21.20;99.90;;;;;;5032480;28;20053;-52
2024/03/14 05:34:01;;;;;;;7.15;5.35;;;21.20;99.90;;;;;;5032554;28;20030;-52
2024/03/14 05:36:27;;;;;;;9.05;5.45;;;21.20;99.90;;;;;;5031143;28;20021;-52
2024/03/14 05:38:52;;;;;;;7.57;5.70;;;21.20;99.90;;;;;;5032432;28;20108;-52
2024/03/14 05:41:19;;;;;;;8.88;5.88;;;21.20;99.90;;;;;;5032422;28;20128;-52
2024/03/14 05:43:45;;;;;;;9.07;5.90;;;21.20;99.90;;;;;;5031147;28;20397;-52
2024/03/14 05:46:14;;;;;;;7.22;5.50;;;21.20;99.90;;;;;;5032303;28;20025;-52
2024/03/14 05:48:39;;;;;;;6.25;5.40;;;21.20;99.90;;;;;;5032299;28;20091;-52
2024/03/14 05:51:09;;;;;;;7.97;5.75;;;21.20;99.90;;;;;;5047556;28;20033;-52
2024/03/14 05:53:35;;;;;;;8.48;5.43;;;21.20;99.90;;;;;;5032208;28;20105;-53
2024/03/14 05:56:04;;;;;;;8.45;5.55;;;21.20;99.90;;;;;;5030945;28;20022;-53
2024/03/14 05:58:32;;;;;;;6.13;4.82;;;21.20;99.90;;;;;;5032237;28;20385;-53
2024/03/14 06:01:02;;;;;;;7.10;5.13;;;21.20;99.90;;;;;;5043163;28;20104;-53
2024/03/14 06:03:29;;;;;;;6.47;4.82;;;21.20;99.90;;;;;;5030069;28;20351;-53
2024/03/14 06:05:55;;;;;;;7.07;4.65;;;21.20;99.90;;;;;;5047157;28;20514;-53
2024/03/14 06:08:20;;;;;;;6.70;5.00;;;21.20;99.90;;;;;;5029291;28;20124;-53
2024/03/14 06:10:46;;;;;;;6.72;5.43;;;21.10;99.90;;;;;;5031348;28;20078;-52
2024/03/14 06:13:12;;;;;;;7.15;5.00;;;21.10;99.90;;;;;;5032047;28;20040;-53
2024/03/14 06:15:38;;;;;;;5.75;4.68;;;21.10;99.90;;;;;;5034051;28;20070;-53
2024/03/14 06:18:05;;;;;;;6.90;5.03;;;21.10;99.90;;;;;;5036035;28;20164;-53
2024/03/14 06:20:34;;;;;;;8.25;4.68;;;21.10;99.90;;;;;;5036426;28;20021;-53
2024/03/14 06:23:00;;;;;;;8.15;4.90;;;21.10;99.90;;;;;;5035967;28;20033;-53
2024/03/14 06:25:26;;;;;;;6.32;4.57;;;21.10;99.90;;;;;;5035889;28;20030;-53
2024/03/14 06:27:52;;;;;;;7.15;4.43;;;21.10;99.90;;;;;;5035909;28;20488;-52
2024/03/14 06:30:19;;;;;;;7.45;3.85;;;21.10;99.90;;;;;;5035960;28;20021;-53
2024/03/14 06:32:45;;;;;;;7.20;4.90;;;21.10;99.90;;;;;;5034504;28;20088;-53
2024/03/14 06:35:11;;;;;;;6.20;4.47;;;21.10;99.90;;;;;;5035810;28;20574;-53
2024/03/14 06:37:37;;;;;;;6.55;4.63;;;21.10;99.90;;;;;;5035582;28;20022;-52
2024/03/14 06:40:06;;;;;;;7.13;5.00;;;21.10;99.90;;;;;;5035661;28;20041;-53
2024/03/14 06:42:35;;;;;;;5.68;4.65;;;21.10;99.90;;;;;;5035711;28;20025;-53
2024/03/14 06:45:04;;;;;;;10.27;4.70;;;21.10;99.90;;;;;;5035510;28;20462;-52
2024/03/14 06:47:30;;;;;;;9.18;4.22;;;21.10;99.90;;;;;;5035392;28;20092;-52
2024/03/14 06:50:00;;;;;;;7.97;4.43;;;21.00;99.90;;;;;;5035413;28;20033;-52
2024/03/14 06:52:27;;;;;;;5.75;4.07;;;21.00;99.90;;;;;;5035300;28;20031;-53
2024/03/14 06:54:53;;;;;;;5.90;4.15;;;21.00;99.90;;;;;;5035374;28;20029;-52
2024/03/14 06:57:19;;;;;;;8.35;4.68;;;21.00;99.90;;;;;;5036030;28;20017;-52
2024/03/14 06:59:48;;;;;;;5.07;4.07;;;21.00;99.90;;;;;;5035363;28;20470;-52
2024/03/14 07:02:18;;;;;;;6.20;4.55;;;21.00;99.90;;;;;;5049685;28;20037;-52
2024/03/14 07:04:44;;;;;;;6.00;3.70;;;21.00;99.90;;;;;;5055216;28;20176;-52
2024/03/14 07:07:11;;;;;;;4.88;3.97;;;21.00;99.90;;;;;;5054990;28;20024;-51
2024/03/14 07:09:40;;;;;;;7.75;4.85;;;21.00;99.90;;;;;;5053775;28;20025;-52
2024/03/14 07:12:09;;;;;;;6.15;4.10;;;21.00;99.90;;;;;;5054932;28;20021;-52
2024/03/14 07:14:36;;;;;;;5.72;4.05;;;21.00;99.90;;;;;;5054913;28;20086;-52
2024/03/14 07:17:02;;;;;;;5.93;4.60;;;21.00;99.90;;;;;;5054899;28;20021;-52
2024/03/14 07:19:28;;;;;;;6.05;4.10;;;21.00;99.90;;;;;;5036949;28;20411;-52
2024/03/14 07:21:54;;;;;;;8.27;4.18;;;21.00;99.90;;;;;;5054838;28;20021;-52
2024/03/14 07:24:26;;;;;;;6.28;4.22;;;21.00;99.90;;;;;;5054987;28;20078;-52
2024/03/14 07:26:53;;;;;;;4.72;4.10;;;21.00;99.90;;;;;;5054506;28;20021;-52
2024/03/14 07:29:19;;;;;;;7.05;3.53;;;21.00;99.90;;;;;;5054559;28;20043;-52
2024/03/14 07:31:47;;;;;;;5.72;3.83;;;21.00;99.90;;;;;;5054739;28;20045;-53
2024/03/14 07:34:14;;;;;;;7.72;4.13;;;21.00;99.90;;;;;;5054602;28;20347;-53
2024/03/14 07:36:41;;;;;;;9.13;4.10;;;21.00;99.90;;;;;;5054606;28;20025;-53
2024/03/14 07:39:09;;;;;;;7.78;3.75;;;21.00;99.90;;;;;;5054497;28;20029;-53
2024/03/14 07:41:37;;;;;;;5.65;4.32;;;21.00;99.90;;;;;;5054502;28;20017;-52
2024/03/14 07:44:04;;;;;;;6.78;4.07;;;21.00;99.90;;;;;;5054449;28;20452;-52
2024/03/14 07:46:30;;;;;;;7.03;3.75;;;21.10;99.90;;;;;;5054372;28;20017;-52
2024/03/14 07:48:56;;;;;;;12.20;4.75;;;21.10;99.90;;;;;;5054164;28;20124;-52
2024/03/14 07:51:22;;;;;;;5.57;3.83;;;21.10;99.90;;;;;;5054521;28;20079;-52
2024/03/14 07:53:48;;;;;;;7.25;3.95;;;21.10;99.90;;;;;;5054205;28;20484;-53
2024/03/14 07:56:15;;;;;;;5.88;4.15;;;21.10;99.90;;;;;;5054055;28;20070;-52
2024/03/14 07:58:43;;;;;;;6.85;3.85;;;21.10;99.90;;;;;;5054170;28;20021;-52
2024/03/14 08:01:15;;;;;;;8.68;3.95;;;21.10;99.90;;;;;;5053944;28;20052;-52
2024/03/14 08:03:45;;;;;;;6.88;3.75;;;21.10;99.90;;;;;;5054259;28;20036;-52
2024/03/14 08:06:12;;;;;;;5.40;3.58;;;21.10;99.90;;;;;;5053984;28;20137;-52
2024/03/14 08:08:38;;;;;;;7.05;3.53;;;21.20;99.90;;;;;;5053929;28;20032;-52
2024/03/14 08:11:05;;;;;;;6.57;3.83;;;21.10;99.90;;;;;;5053919;28;20462;-52
2024/03/14 08:13:34;;;;;;;7.80;3.67;;;21.20;99.90;;;;;;5053857;28;20025;-52
2024/03/14 08:16:08;;;;;;;5.07;3.25;;;21.20;99.90;;;;;;5053801;28;20021;-53
2024/03/14 08:18:38;;;;;;;5.45;3.25;;;21.20;99.90;;;;;;5053822;28;20028;-52
2024/03/14 08:21:07;;;;;;;5.43;3.28;;;21.20;99.90;;;;;;5053555;28;20025;-52
2024/03/14 08:23:34;;;;;;;6.90;3.97;;;21.20;99.90;;;;;;5035852;28;20024;-53
2024/03/14 08:26:00;;;;;;;6.30;3.60;;;21.20;99.90;;;;;;5053434;28;20021;-53
2024/03/14 08:28:26;;;;;;;6.47;3.08;;;21.20;99.90;;;;;;5053772;28;20033;-53
2024/03/14 08:30:52;;;;;;;5.53;3.58;;;21.20;99.90;;;;;;5035778;28;20024;-52
2024/03/14 08:33:18;;;;;;;6.07;3.72;;;21.20;99.90;;;;;;5053558;28;20036;-52
2024/03/14 08:35:44;;;;;;;7.00;3.72;;;21.20;99.90;;;;;;5035531;28;20025;-52
2024/03/14 08:38:13;;;;;;;5.10;3.65;;;21.20;99.90;;;;;;5052419;28;20059;-52
2024/03/14 08:40:39;;;;;;;6.28;3.38;;;21.20;99.90;;;;;;5053352;28;20025;-53
2024/03/14 08:43:05;;;;;;;5.60;3.20;;;21.20;99.90;;;;;;5053383;28;20397;-53
2024/03/14 08:45:35;;;;;;;4.78;3.20;;;21.20;99.90;;;;;;5053305;28;20071;-52
2024/03/14 08:48:07;;;;;;;5.53;3.60;;;21.20;99.90;;;;;;5053121;28;20479;-53
2024/03/14 08:50:40;;;;;;;4.35;3.42;;;21.30;99.90;;;;;;5053122;28;20021;-53
2024/03/14 08:53:09;;;;;;;3.65;2.88;;;21.20;99.90;;;;;;5053039;28;20028;-53
2024/03/14 08:55:39;;;;;;;4.70;3.05;;;21.30;99.90;;;;;;5053053;28;20024;-53
2024/03/14 08:58:08;;;;;;;7.45;2.88;;;21.30;99.90;;;;;;5053003;28;20021;-52
2024/03/14 09:00:34;;;;;;;3.65;2.92;;;21.30;99.90;;;;;;5052733;28;20017;-52
2024/03/14 09:03:00;;;;;;;4.30;3.22;;;21.30;99.90;;;;;;5052857;28;20037;-52
2024/03/14 09:05:26;;;;;;;4.78;3.30;;;21.30;99.90;;;;;;5053029;28;20572;-52
2024/03/14 09:07:52;;;;;;;7.13;4.50;;;21.30;99.90;;;;;;5052846;28;20032;-52
2024/03/14 09:10:25;;;;;;;6.55;2.92;;;21.30;99.90;;;;;;5052802;28;20268;-53
2024/03/14 09:12:55;;;;;;;4.43;3.20;;;21.30;99.90;;;;;;5052679;28;20028;-52
2024/03/14 09:15:24;;;;;;;5.85;3.00;;;21.30;99.90;;;;;;5052734;28;20024;-52
2024/03/14 09:17:50;;;;;;;5.82;3.42;;;21.40;99.90;;;;;;5034682;28;20029;-52
2024/03/14 09:20:16;;;;;;;5.72;3.03;;;21.30;99.90;;;;;;5052617;28;20017;-52
2024/03/14 09:22:43;;;;;;;5.35;2.78;;;21.40;99.90;;;;;;5052578;28;20487;-52
2024/03/14 09:25:14;;;;;;;3.88;3.05;;;21.40;99.90;;;;;;5052603;28;20017;-53
2024/03/14 09:27:43;;;;;;;6.85;3.47;;;21.40;99.90;;;;;;5052444;28;20040;-52
2024/03/14 09:30:09;;;;;;;8.23;3.67;;;21.40;99.90;;;;;;5052361;28;20025;-52
2024/03/14 09:32:40;;;;;;;4.93;3.17;;;21.40;99.90;;;;;;5052293;28;20082;-52
2024/03/14 09:35:16;;;;;;;7.10;3.35;;;21.40;99.90;;;;;;5052321;28;20025;-52
2024/03/14 09:37:45;;;;;;;7.70;3.55;;;21.40;99.90;;;;;;5034536;28;20017;-52
2024/03/14 09:40:15;;;;;;;7.60;3.97;;;21.40;99.90;;;;;;5052454;28;20494;-52
2024/03/14 09:42:47;;;;;;;7.03;3.22;;;21.50;99.90;;;;;;5052358;28;20024;-52
2024/03/14 09:45:14;;;;;;;6.80;3.20;;;21.50;99.90;;;;;;5052254;28;20025;-53
2024/03/14 09:47:41;;;;;;;7.72;3.78;;;21.50;99.90;;;;;;5052242;28;20029;-52
2024/03/14 09:50:17;;;;;;;5.15;2.80;;;21.50;99.90;;;;;;5052036;28;20494;-52
2024/03/14 09:52:44;;;;;;;5.93;3.33;;;21.50;99.90;;;;;;5052162;28;20159;-52
2024/03/14 09:55:14;;;;;;;6.07;3.27;;;21.50;99.90;;;;;;5034492;28;20116;-52
2024/03/14 09:57:40;;;;;;;10.60;4.18;;;21.60;99.90;;;;;;5051993;28;20064;-53
2024/03/14 10:00:11;;;;;;;7.20;3.92;;;21.60;99.90;;;;;;5052080;28;20354;-53
2024/03/14 10:02:40;;;;;;;5.85;2.95;;;21.60;99.90;;;;;;5052083;28;20041;-53
2024/03/14 10:05:12;;;;;;;7.05;3.20;;;21.60;99.90;;;;;;5051904;28;20067;-53
2024/03/14 10:07:39;;;;;;;6.00;3.10;;;21.70;99.90;;;;;;5051869;28;20033;-52
2024/03/14 10:10:08;;;;;;;7.40;3.22;;;21.70;99.90;;;;;;5034108;28;20052;-52
2024/03/14 10:12:38;;;;;;;6.95;3.05;;;21.70;99.90;;;;;;5034013;28;20029;-52
2024/03/14 10:15:16;;;;;;;6.28;3.15;;;21.80;99.90;;;;;;5052095;28;20366;-52
2024/03/14 10:17:45;;;;;;;6.13;2.70;;;21.80;99.90;;;;;;5033854;28;20501;-52
2024/03/14 10:20:15;;;;;;;7.78;3.50;;;21.80;99.90;;;;;;5051647;28;20029;-53
2024/03/14 10:22:48;;;;;;;7.57;3.28;;;21.80;99.90;;;;;;5051763;28;20140;-53
2024/03/14 10:25:23;;;;;;;5.22;3.30;;;21.90;99.90;;;;;;5051741;28;20028;-52
2024/03/14 10:27:51;;;;;;;4.38;3.20;;;21.90;99.90;;;;;;5051645;28;20033;-52
2024/03/14 10:30:18;;;;;;;4.93;2.80;;;21.90;99.90;;;;;;5033767;28;20060;-52
2024/03/14 10:32:49;;;;;;;5.87;3.10;;;21.90;99.90;;;;;;5051793;28;20025;-53
2024/03/14 10:35:16;;;;;;;6.35;3.58;;;22.00;99.90;;;;;;5051645;28;20254;-52
2024/03/14 10:37:48;;;;;;;4.70;2.92;;;22.00;99.90;;;;;;5051694;28;20032;-52
2024/03/14 10:40:18;;;;;;;6.50;3.17;;;22.00;99.90;;;;;;5051718;28;20108;-53
2024/03/14 10:42:49;;;;;;;7.85;3.20;;;22.00;99.90;;;;;;5033843;28;20106;-53
2024/03/14 10:45:19;;;;;;;4.93;3.15;;;22.10;99.90;;;;;;5051767;28;20032;-53
2024/03/14 10:47:49;;;;;;;5.15;3.30;;;22.10;99.90;;;;;;5051562;28;20033;-51
2024/03/14 10:50:19;;;;;;;6.63;3.38;;;22.10;99.90;;;;;;5051660;28;20029;-54
2024/03/14 10:52:49;;;;;;;4.80;3.42;;;22.10;99.90;;;;;;5051616;28;20032;-52
2024/03/14 10:55:21;;;;;;;5.22;3.30;;;22.10;99.90;;;;;;5051445;28;20508;-52
2024/03/14 10:57:48;;;;;;;8.38;3.35;;;22.10;99.90;;;;;;5051474;28;20440;-53
2024/03/14 11:00:19;;;;;;;9.23;3.88;;;22.20;99.90;;;;;;5051446;28;20063;-53
2024/03/14 11:02:55;;;;;;;5.13;3.65;;;22.20;99.90;;;;;;5054669;28;20081;-52
2024/03/14 11:05:24;;;;;;;4.80;3.38;;;22.20;99.90;;;;;;5055093;28;20419;-52
2024/03/14 11:07:52;;;;;;;9.07;4.25;;;22.30;99.90;;;;;;5055138;28;20029;-53
2024/03/14 11:10:28;;;;;;;7.55;3.72;;;22.30;99.90;;;;;;5055047;28;20359;-52
2024/03/14 11:13:09;;;;;;;9.38;3.70;;;22.30;99.90;;;;;;5055075;28;20422;-53
2024/03/14 11:15:38;;;;;;;6.80;4.20;;;22.30;99.90;;;;;;5055461;28;20118;-53
2024/03/14 11:18:16;;;;;;;6.93;4.00;;;22.30;99.90;;;;;;5055197;28;20381;-52
2024/03/14 11:20:49;;;;;;;7.20;4.38;;;22.30;99.90;;;;;;5054812;28;20026;-53
2024/03/14 11:23:22;;;;;;;9.35;4.22;;;22.40;99.90;;;;;;5054630;28;20104;-53
2024/03/14 11:25:53;;;;;;;9.85;4.80;;;22.40;99.90;;;;;;5036719;28;20376;-53
2024/03/14 11:28:20;;;;;;;8.68;4.75;;;22.40;99.90;;;;;;5054413;28;20033;-53
2024/03/14 11:31:00;;;;;;;7.45;5.45;;;22.40;99.90;;;;;;5054704;28;20025;-53
2024/03/14 11:33:30;;;;;;;9.50;6.00;;;22.50;99.90;;;;;;5036948;28;20392;-54
2024/03/14 11:35:59;;;;;;;9.88;5.78;;;22.50;99.90;;;;;;5054406;28;20447;-54
2024/03/14 11:38:28;;;;;;;9.32;6.03;;;22.50;99.90;;;;;;5054598;28;20108;-54
2024/03/14 11:40:58;;;;;;;10.73;5.57;;;22.50;99.90;;;;;;5054428;28;20119;-54
2024/03/14 11:43:26;;;;;;;11.60;6.10;;;22.50;99.90;;;;;;5054419;28;20067;-54
2024/03/14 11:45:59;;;;;;;11.63;6.70;;;22.60;99.90;;;;;;5054313;28;20017;-54
2024/03/14 11:48:28;;;;;;;9.77;6.65;;;22.60;99.90;;;;;;5054346;28;20033;-53
2024/03/14 11:50:56;;;;;;;10.65;6.38;;;22.60;99.90;;;;;;5054307;28;20500;-54
2024/03/14 11:53:22;;;;;;;12.43;6.30;;;22.60;99.90;;;;;;5054211;28;20025;-54
2024/03/14 11:55:48;;;;;;;9.07;5.97;;;22.70;99.90;;;;;;5054291;28;20071;-53
2024/03/14 11:58:18;;;;;;;9.93;6.43;;;22.70;99.90;;;;;;5036730;28;20049;-53
2024/03/14 12:00:47;;;;;;;11.45;6.47;;;22.70;99.90;;;;;;5054232;28;20374;-53
2024/03/14 12:03:24;;;;;;;9.48;6.22;;;22.70;99.90;;;;;;5036161;28;20025;-53
2024/03/14 12:06:05;;;;;;;10.98;6.13;;;22.80;99.90;;;;;;5054035;28;20531;-53
2024/03/14 12:08:37;;;;;;;10.55;6.03;;;22.80;99.90;;;;;;5053901;28;20049;-53
2024/03/14 12:11:04;;;;;;;10.10;5.70;;;22.80;99.90;;;;;;5053989;28;20060;-53
2024/03/14 12:13:30;;;;;;;11.73;6.25;;;22.80;99.90;;;;;;5053842;28;20025;-53
2024/03/14 12:16:03;;;;;;;8.60;5.63;;;22.80;99.90;;;;;;5053833;28;20025;-52
2024/03/14 12:18:33;;;;;;;9.15;5.68;;;22.90;99.90;;;;;;5053749;28;20108;-53
2024/03/14 12:21:00;;;;;;;10.10;6.10;;;22.90;99.90;;;;;;5053786;28;20382;-54
2024/03/14 12:23:27;;;;;;;9.48;5.53;;;22.90;99.90;;;;;;5053602;28;20037;-53
2024/03/14 12:25:55;;;;;;;11.60;6.03;;;22.90;99.90;;;;;;5053807;28;20393;-54
2024/03/14 12:28:23;;;;;;;9.10;5.90;;;22.90;99.90;;;;;;5035643;28;20028;-53
2024/03/14 12:31:00;;;;;;;11.25;6.03;;;22.90;99.90;;;;;;5035594;28;20021;-54
2024/03/14 12:33:27;;;;;;;9.73;5.70;;;22.90;99.90;;;;;;5053486;28;20048;-54
2024/03/14 12:35:54;;;;;;;8.52;5.10;;;23.00;99.90;;;;;;5053350;28;20378;-54
2024/03/14 12:38:23;;;;;;;8.07;5.57;;;23.00;99.90;;;;;;5053414;28;20505;-53
2024/03/14 12:40:53;;;;;;;7.78;4.75;;;23.00;99.90;;;;;;5035432;28;20527;-51
2024/03/14 12:43:20;;;;;;;9.35;5.45;;;23.00;99.90;;;;;;5035104;28;20025;-51
2024/03/14 12:45:46;;;;;;;;;;;23.00;99.90;;;;;;5035570;28;20053;-51
2024/03/14 12:48:16;;;;;;;8.45;5.45;;;23.10;99.90;;;;;;5053076;28;19920;-53
2024/03/14 12:50:42;;;;;;;6.97;5.75;;;23.10;99.90;;;;;;5053047;28;20025;-52